sensor_id;sensor_type;location;lat;lon;timestamp;pressure;altitude;pressure_sealevel;temperature;humidity
60345;BME280;46188;52.324;8.032;2023-05-02T00:02:15;100582.06;;;12.49;97.90
60345;BME280;46188;52.324;8.032;2023-05-02T00:04:40;100576.78;;;12.49;98.59
60345;BME280;46188;52.324;8.032;2023-05-02T00:07:06;100576.78;;;12.48;99.25
60345;BME280;46188;52.324;8.032;2023-05-02T00:09:31;100579.44;;;12.51;99.63
60345;BME280;46188;52.324;8.032;2023-05-02T00:11:56;100582.97;;;12.50;100.00
60345;BME280;46188;52.324;8.032;2023-05-02T00:14:22;100581.19;;;12.49;100.00
60345;BME280;46188;52.324;8.032;2023-05-02T00:16:47;100582.91;;;12.39;100.00
60345;BME280;46188;52.324;8.032;2023-05-02T00:19:12;100589.03;;;12.32;100.00
60345;BME280;46188;52.324;8.032;2023-05-02T00:21:37;100583.72;;;12.26;100.00
60345;BME280;46188;52.324;8.032;2023-05-02T00:24:03;100582.84;;;12.27;100.00
60345;BME280;46188;52.324;8.032;2023-05-02T00:26:28;100569.59;;;12.21;100.00
60345;BME280;46188;52.324;8.032;2023-05-02T00:28:53;100581.94;;;12.22;100.00
60345;BME280;46188;52.324;8.032;2023-05-02T00:31:19;100575.75;;;12.24;100.00
60345;BME280;46188;52.324;8.032;2023-05-02T00:33:44;100583.69;;;12.23;100.00
60345;BME280;46188;52.324;8.032;2023-05-02T00:36:18;100586.31;;;12.21;100.00
60345;BME280;46188;52.324;8.032;2023-05-02T00:38:44;100582.81;;;12.24;100.00
60345;BME280;46188;52.324;8.032;2023-05-02T00:41:09;100590.75;;;12.22;100.00
60345;BME280;46188;52.324;8.032;2023-05-02T00:43:35;100600.44;;;12.20;100.00
60345;BME280;46188;52.324;8.032;2023-05-02T00:46:01;100590.69;;;12.14;100.00
60345;BME280;46188;52.324;8.032;2023-05-02T00:48:27;100595.88;;;12.00;100.00
60345;BME280;46188;52.324;8.032;2023-05-02T00:50:52;100596.72;;;11.96;100.00
60345;BME280;46188;52.324;8.032;2023-05-02T00:53:17;100601.03;;;11.87;100.00
60345;BME280;46188;52.324;8.032;2023-05-02T00:55:43;100609.78;;;11.82;100.00
60345;BME280;46188;52.324;8.032;2023-05-02T00:58:13;100605.41;;;11.80;100.00
60345;BME280;46188;52.324;8.032;2023-05-02T01:01:28;100608.00;;;11.81;100.00
60345;BME280;46188;52.324;8.032;2023-05-02T01:12:00;100601.72;;;11.62;100.00
60345;BME280;46188;52.324;8.032;2023-05-02T01:14:30;100605.22;;;11.63;100.00
60345;BME280;46188;52.324;8.032;2023-05-02T01:17:01;100608.78;;;11.65;100.00
60345;BME280;46188;52.324;8.032;2023-05-02T01:19:33;100606.16;;;11.68;100.00
60345;BME280;46188;52.324;8.032;2023-05-02T01:22:01;100611.44;;;11.68;100.00
60345;BME280;46188;52.324;8.032;2023-05-02T01:25:06;100607.91;;;11.66;100.00
60345;BME280;46188;52.324;8.032;2023-05-02T01:27:46;100609.63;;;11.62;100.00
60345;BME280;46188;52.324;8.032;2023-05-02T01:30:13;100613.09;;;11.55;100.00
60345;BME280;46188;52.324;8.032;2023-05-02T01:32:43;100623.66;;;11.55;100.00
60345;BME280;46188;52.324;8.032;2023-05-02T01:35:10;100616.53;;;11.48;100.00
60345;BME280;46188;52.324;8.032;2023-05-02T01:37:37;100622.72;;;11.50;100.00
60345;BME280;46188;52.324;8.032;2023-05-02T01:40:04;100622.72;;;11.49;100.00
60345;BME280;46188;52.324;8.032;2023-05-02T01:42:33;100621.78;;;11.47;100.00
60345;BME280;46188;52.324;8.032;2023-05-02T01:45:03;100627.06;;;11.42;100.00
60345;BME280;46188;52.324;8.032;2023-05-02T01:47:31;100628.75;;;11.38;100.00
60345;BME280;46188;52.324;8.032;2023-05-02T01:49:58;100633.28;;;11.49;100.00
60345;BME280;46188;52.324;8.032;2023-05-02T01:52:24;100633.28;;;11.53;100.00
60345;BME280;46188;52.324;8.032;2023-05-02T01:54:51;100637.63;;;11.47;100.00
60345;BME280;46188;52.324;8.032;2023-05-02T01:57:17;100644.69;;;11.46;100.00
60345;BME280;46188;52.324;8.032;2023-05-02T01:59:43;100643.78;;;11.44;100.00
60345;BME280;46188;52.324;8.032;2023-05-02T02:02:12;100649.00;;;11.39;100.00
60345;BME280;46188;52.324;8.032;2023-05-02T02:04:38;100652.56;;;11.43;100.00
60345;BME280;46188;52.324;8.032;2023-05-02T02:07:10;100663.19;;;11.48;100.00
60345;BME280;46188;52.324;8.032;2023-05-02T02:09:37;100649.03;;;11.41;100.00
60345;BME280;46188;52.324;8.032;2023-05-02T02:12:05;100661.34;;;11.40;100.00
60345;BME280;46188;52.324;8.032;2023-05-02T02:14:35;100657.81;;;11.40;100.00
60345;BME280;46188;52.324;8.032;2023-05-02T02:17:05;100665.69;;;11.37;100.00
60345;BME280;46188;52.324;8.032;2023-05-02T02:19:33;100658.63;;;11.34;100.00
60345;BME280;46188;52.324;8.032;2023-05-02T02:21:59;100663.03;;;11.37;100.00
60345;BME280;46188;52.324;8.032;2023-05-02T02:24:25;100669.28;;;11.40;100.00
60345;BME280;46188;52.324;8.032;2023-05-02T02:26:50;100669.28;;;11.40;100.00
60345;BME280;46188;52.324;8.032;2023-05-02T02:29:16;100664.91;;;11.44;100.00
60345;BME280;46188;52.324;8.032;2023-05-02T02:31:41;100672.75;;;11.38;100.00
60345;BME280;46188;52.324;8.032;2023-05-02T02:34:07;100675.31;;;11.32;100.00
60345;BME280;46188;52.324;8.032;2023-05-02T02:36:44;100670.09;;;11.36;100.00
60345;BME280;46188;52.324;8.032;2023-05-02T02:39:21;100676.28;;;11.41;100.00
60345;BME280;46188;52.324;8.032;2023-05-02T02:41:57;100676.25;;;11.37;100.00
60345;BME280;46188;52.324;8.032;2023-05-02T02:44:46;100675.31;;;11.32;100.00
60345;BME280;46188;52.324;8.032;2023-05-02T02:47:41;100684.91;;;11.25;100.00
60345;BME280;46188;52.324;8.032;2023-05-02T02:50:10;100684.00;;;11.23;100.00
60345;BME280;46188;52.324;8.032;2023-05-02T02:52:47;100683.09;;;11.19;100.00
60345;BME280;46188;52.324;8.032;2023-05-02T03:00:24;100697.97;;;11.13;100.00
60345;BME280;46188;52.324;8.032;2023-05-02T03:02:52;100700.56;;;11.10;100.00
60345;BME280;46188;52.324;8.032;2023-05-02T03:05:20;100701.56;;;11.18;100.00
60345;BME280;46188;52.324;8.032;2023-05-02T03:07:46;100696.19;;;11.12;100.00
60345;BME280;46188;52.324;8.032;2023-05-02T03:10:11;100704.09;;;11.12;100.00
60345;BME280;46188;52.324;8.032;2023-05-02T03:12:36;100703.13;;;11.03;100.00
60345;BME280;46188;52.324;8.032;2023-05-02T03:15:22;100704.91;;;11.04;100.00
60345;BME280;46188;52.324;8.032;2023-05-02T03:17:49;100710.16;;;11.03;100.00
60345;BME280;46188;52.324;8.032;2023-05-02T03:20:14;100708.34;;;11.00;100.00
60345;BME280;46188;52.324;8.032;2023-05-02T03:22:39;100709.25;;;10.99;100.00
60345;BME280;46188;52.324;8.032;2023-05-02T03:25:05;100713.63;;;10.97;100.00
60345;BME280;46188;52.324;8.032;2023-05-02T03:27:30;100708.34;;;11.00;100.00
60345;BME280;46188;52.324;8.032;2023-05-02T03:29:56;100715.41;;;11.01;100.00
60345;BME280;46188;52.324;8.032;2023-05-02T03:32:21;100714.47;;;10.96;100.00
60345;BME280;46188;52.324;8.032;2023-05-02T03:34:46;100719.81;;;11.01;100.00
60345;BME280;46188;52.324;8.032;2023-05-02T03:37:12;100732.97;;;10.99;100.00
60345;BME280;46188;52.324;8.032;2023-05-02T03:39:37;100721.56;;;11.02;100.00
60345;BME280;46188;52.324;8.032;2023-05-02T03:42:02;100732.13;;;11.02;100.00
60345;BME280;46188;52.324;8.032;2023-05-02T03:44:27;100732.09;;;10.97;100.00
60345;BME280;46188;52.324;8.032;2023-05-02T03:46:53;100732.09;;;10.97;100.00
60345;BME280;46188;52.324;8.032;2023-05-02T03:49:18;100736.47;;;10.98;100.00
60345;BME280;46188;52.324;8.032;2023-05-02T03:51:43;100746.97;;;10.95;100.00
60345;BME280;46188;52.324;8.032;2023-05-02T03:54:09;100747.88;;;10.94;100.00
60345;BME280;46188;52.324;8.032;2023-05-02T03:56:34;100752.19;;;10.92;100.00
60345;BME280;46188;52.324;8.032;2023-05-02T03:58:59;100754.81;;;10.87;100.00
60345;BME280;46188;52.324;8.032;2023-05-02T04:01:25;100763.53;;;10.85;100.00
60345;BME280;46188;52.324;8.032;2023-05-02T04:03:51;100764.41;;;10.82;100.00
60345;BME280;46188;52.324;8.032;2023-05-02T04:06:16;100764.31;;;10.78;100.00
60345;BME280;46188;52.324;8.032;2023-05-02T04:08:41;100777.50;;;10.76;100.00
60345;BME280;46188;52.324;8.032;2023-05-02T04:11:07;100783.56;;;10.72;100.00
60345;BME280;46188;52.324;8.032;2023-05-02T04:13:32;100784.50;;;10.74;100.00
60345;BME280;46188;52.324;8.032;2023-05-02T04:15:57;100793.34;;;10.78;100.00
60345;BME280;46188;52.324;8.032;2023-05-02T04:18:23;100791.53;;;10.75;100.00
60345;BME280;46188;52.324;8.032;2023-05-02T04:20:49;100795.78;;;10.67;100.00
60345;BME280;46188;52.324;8.032;2023-05-02T04:23:14;100806.38;;;10.68;100.00
60345;BME280;46188;52.324;8.032;2023-05-02T04:25:40;100804.63;;;10.70;100.00
60345;BME280;46188;52.324;8.032;2023-05-02T04:28:05;100810.75;;;10.68;100.00
60345;BME280;46188;52.324;8.032;2023-05-02T04:30:30;100811.59;;;10.67;100.00
60345;BME280;46188;52.324;8.032;2023-05-02T04:32:56;100816.78;;;10.61;100.00
60345;BME280;46188;52.324;8.032;2023-05-02T04:35:21;100822.91;;;10.58;100.00
60345;BME280;46188;52.324;8.032;2023-05-02T04:37:47;100817.63;;;10.58;100.00
60345;BME280;46188;52.324;8.032;2023-05-02T04:40:12;100823.78;;;10.59;100.00
60345;BME280;46188;52.324;8.032;2023-05-02T04:42:37;100826.44;;;10.60;100.00
60345;BME280;46188;52.324;8.032;2023-05-02T04:45:03;100833.44;;;10.58;100.00
60345;BME280;46188;52.324;8.032;2023-05-02T04:47:28;100836.03;;;10.55;100.00
60345;BME280;46188;52.324;8.032;2023-05-02T04:49:53;100837.75;;;10.53;100.00
60345;BME280;46188;52.324;8.032;2023-05-02T04:52:19;100851.69;;;10.47;100.00
60345;BME280;46188;52.324;8.032;2023-05-02T04:54:44;100855.16;;;10.43;100.00
60345;BME280;46188;52.324;8.032;2023-05-02T04:57:09;100869.97;;;10.37;100.00
60345;BME280;46188;52.324;8.032;2023-05-02T04:59:35;100878.47;;;10.23;100.00
60345;BME280;46188;52.324;8.032;2023-05-02T05:02:01;100888.91;;;10.17;100.00
60345;BME280;46188;52.324;8.032;2023-05-02T05:04:26;100890.34;;;10.03;100.00
60345;BME280;46188;52.324;8.032;2023-05-02T05:06:52;100899.78;;;9.90;100.00
60345;BME280;46188;52.324;8.032;2023-05-02T05:09:17;100907.50;;;9.82;100.00
60345;BME280;46188;52.324;8.032;2023-05-02T05:11:42;100910.00;;;9.76;100.00
60345;BME280;46188;52.324;8.032;2023-05-02T05:14:10;100910.81;;;9.72;100.00
60345;BME280;46188;52.324;8.032;2023-05-02T05:16:35;100917.72;;;9.67;100.00
60345;BME280;46188;52.324;8.032;2023-05-02T05:19:01;100921.06;;;9.59;100.00
60345;BME280;46188;52.324;8.032;2023-05-02T05:21:26;100929.59;;;9.49;100.00
60345;BME280;46188;52.324;8.032;2023-05-02T05:23:52;100933.03;;;9.45;100.00
60345;BME280;46188;52.324;8.032;2023-05-02T05:26:17;100935.63;;;9.44;100.00
60345;BME280;46188;52.324;8.032;2023-05-02T05:28:43;100947.84;;;9.41;100.00
60345;BME280;46188;52.324;8.032;2023-05-02T05:31:12;100953.69;;;9.30;100.00
60345;BME280;46188;52.324;8.032;2023-05-02T05:33:41;100959.72;;;9.24;100.00
60345;BME280;46188;52.324;8.032;2023-05-02T05:36:11;100971.25;;;9.29;100.00
60345;BME280;46188;52.324;8.032;2023-05-02T05:38:37;100970.44;;;9.33;100.00
60345;BME280;46188;52.324;8.032;2023-05-02T05:41:02;100979.81;;;9.20;100.00
60345;BME280;46188;52.324;8.032;2023-05-02T05:43:29;100984.88;;;9.13;100.00
60345;BME280;46188;52.324;8.032;2023-05-02T05:45:55;100986.63;;;9.12;100.00
60345;BME280;46188;52.324;8.032;2023-05-02T05:48:20;100993.50;;;9.07;100.00
60345;BME280;46188;52.324;8.032;2023-05-02T05:50:46;100996.72;;;8.97;100.00
60345;BME280;46188;52.324;8.032;2023-05-02T05:53:12;101006.31;;;8.95;100.00
60345;BME280;46188;52.324;8.032;2023-05-02T05:55:38;101003.47;;;8.85;100.00
60345;BME280;46188;52.324;8.032;2023-05-02T05:58:04;101015.69;;;8.85;100.00
60345;BME280;46188;52.324;8.032;2023-05-02T06:00:29;101014.03;;;8.89;100.00
60345;BME280;46188;52.324;8.032;2023-05-02T06:02:54;101017.56;;;8.89;100.00
60345;BME280;46188;52.324;8.032;2023-05-02T06:05:20;101020.28;;;8.92;100.00
60345;BME280;46188;52.324;8.032;2023-05-02T06:07:45;101022.97;;;8.95;100.00
60345;BME280;46188;52.324;8.032;2023-05-02T06:10:10;101029.31;;;9.02;100.00
60345;BME280;46188;52.324;8.032;2023-05-02T06:12:36;101044.47;;;9.12;100.00
60345;BME280;46188;52.324;8.032;2023-05-02T06:15:01;101039.34;;;9.18;100.00
60345;BME280;46188;52.324;8.032;2023-05-02T06:17:26;101049.91;;;9.20;100.00
60345;BME280;46188;52.324;8.032;2023-05-02T06:19:51;101051.59;;;9.16;100.00
60345;BME280;46188;52.324;8.032;2023-05-02T06:22:17;101052.25;;;9.08;100.00
60345;BME280;46188;52.324;8.032;2023-05-02T06:24:42;101055.78;;;9.10;100.00
60345;BME280;46188;52.324;8.032;2023-05-02T06:27:07;101053.94;;;9.05;100.00
60345;BME280;46188;52.324;8.032;2023-05-02T06:29:33;101061.63;;;8.98;100.00
60345;BME280;46188;52.324;8.032;2023-05-02T06:31:58;101067.72;;;8.97;100.00
60345;BME280;46188;52.324;8.032;2023-05-02T06:34:23;101066.13;;;9.02;100.00
60345;BME280;46188;52.324;8.032;2023-05-02T06:36:53;101074.06;;;9.05;100.00
60345;BME280;46188;52.324;8.032;2023-05-02T06:39:18;101068.81;;;9.05;100.00
60345;BME280;46188;52.324;8.032;2023-05-02T06:41:43;101081.00;;;9.01;100.00
60345;BME280;46188;52.324;8.032;2023-05-02T06:44:09;101086.22;;;9.00;100.00
60345;BME280;46188;52.324;8.032;2023-05-02T06:46:34;101090.59;;;8.99;100.00
60345;BME280;46188;52.324;8.032;2023-05-02T06:48:59;101100.09;;;8.94;100.00
60345;BME280;46188;52.324;8.032;2023-05-02T06:51:24;101100.81;;;8.89;100.00
60345;BME280;46188;52.324;8.032;2023-05-02T06:53:50;101113.63;;;8.76;100.00
60345;BME280;46188;52.324;8.032;2023-05-02T06:56:15;101113.53;;;8.73;100.00
60345;BME280;46188;52.324;8.032;2023-05-02T06:58:41;101113.53;;;8.73;100.00
60345;BME280;46188;52.324;8.032;2023-05-02T07:01:06;101124.09;;;8.75;100.00
60345;BME280;46188;52.324;8.032;2023-05-02T07:03:31;101126.72;;;8.75;100.00
60345;BME280;46188;52.324;8.032;2023-05-02T07:05:57;101127.59;;;8.75;100.00
60345;BME280;46188;52.324;8.032;2023-05-02T07:08:22;101133.38;;;8.63;100.00
60345;BME280;46188;52.324;8.032;2023-05-02T07:10:48;101134.38;;;8.67;100.00
60345;BME280;46188;52.324;8.032;2023-05-02T07:13:13;101145.78;;;8.67;100.00
60345;BME280;46188;52.324;8.032;2023-05-02T07:15:39;101147.09;;;8.83;100.00
60345;BME280;46188;52.324;8.032;2023-05-02T07:18:04;101153.56;;;8.95;100.00
60345;BME280;46188;52.324;8.032;2023-05-02T07:20:30;101159.84;;;9.00;100.00
60345;BME280;46188;52.324;8.032;2023-05-02T07:22:56;101159.50;;;8.88;100.00
60345;BME280;46188;52.324;8.032;2023-05-02T07:25:21;101166.25;;;8.78;100.00
60345;BME280;46188;52.324;8.032;2023-05-02T07:27:46;101160.50;;;8.91;100.00
60345;BME280;46188;52.324;8.032;2023-05-02T07:30:12;101167.00;;;9.04;100.00
60345;BME280;46188;52.324;8.032;2023-05-02T07:32:37;101164.19;;;9.30;100.00
60345;BME280;46188;52.324;8.032;2023-05-02T07:35:02;101167.44;;;9.53;100.00
60345;BME280;46188;52.324;8.032;2023-05-02T07:37:31;101167.84;;;9.68;100.00
60345;BME280;46188;52.324;8.032;2023-05-02T07:39:57;101170.53;;;9.70;100.00
60345;BME280;46188;52.324;8.032;2023-05-02T07:42:27;101180.97;;;9.67;100.00
60345;BME280;46188;52.324;8.032;2023-05-02T07:44:53;101178.31;;;9.65;100.00
60345;BME280;46188;52.324;8.032;2023-05-02T07:47:18;101183.66;;;9.68;100.00
60345;BME280;46188;52.324;8.032;2023-05-02T07:49:43;101187.13;;;9.67;100.00
60345;BME280;46188;52.324;8.032;2023-05-02T07:52:08;101194.13;;;9.67;100.00
60345;BME280;46188;52.324;8.032;2023-05-02T07:54:34;101196.25;;;9.48;100.00
60345;BME280;46188;52.324;8.032;2023-05-02T07:56:59;101197.97;;;9.46;100.00
60345;BME280;46188;52.324;8.032;2023-05-02T07:59:28;101201.59;;;9.51;100.00
60345;BME280;46188;52.324;8.032;2023-05-02T08:01:53;101199.16;;;9.57;100.00
60345;BME280;46188;52.324;8.032;2023-05-02T08:04:19;101200.97;;;9.60;100.00
60345;BME280;46188;52.324;8.032;2023-05-02T08:06:44;101198.84;;;9.45;100.00
60345;BME280;46188;52.324;8.032;2023-05-02T08:09:09;101203.19;;;9.45;100.00
60345;BME280;46188;52.324;8.032;2023-05-02T08:11:35;101204.84;;;9.41;100.00
60345;BME280;46188;52.324;8.032;2023-05-02T08:14:00;101209.75;;;9.27;100.00
60345;BME280;46188;52.324;8.032;2023-05-02T08:16:25;101220.41;;;9.32;100.00
60345;BME280;46188;52.324;8.032;2023-05-02T08:18:53;101221.38;;;9.35;100.00
60345;BME280;46188;52.324;8.032;2023-05-02T08:21:18;101225.91;;;9.41;100.00
60345;BME280;46188;52.324;8.032;2023-05-02T08:23:44;101223.56;;;9.52;100.00
60345;BME280;46188;52.324;8.032;2023-05-02T08:26:10;101220.38;;;9.64;100.00
60345;BME280;46188;52.324;8.032;2023-05-02T08:28:35;101228.47;;;9.71;100.00
60345;BME280;46188;52.324;8.032;2023-05-02T08:31:01;101236.34;;;9.71;100.00
60345;BME280;46188;52.324;8.032;2023-05-02T08:33:26;101226.56;;;9.66;100.00
60345;BME280;46188;52.324;8.032;2023-05-02T08:35:51;101240.44;;;9.58;100.00
60345;BME280;46188;52.324;8.032;2023-05-02T08:38:17;101240.50;;;9.62;100.00
60345;BME280;46188;52.324;8.032;2023-05-02T08:40:42;101242.09;;;9.56;100.00
60345;BME280;46188;52.324;8.032;2023-05-02T08:43:09;101237.06;;;9.64;98.83
60345;BME280;46188;52.324;8.032;2023-05-02T08:45:39;101246.28;;;9.80;97.39
60345;BME280;46188;52.324;8.032;2023-05-02T08:48:06;101252.72;;;9.91;96.27
60345;BME280;46188;52.324;8.032;2023-05-02T08:50:36;101255.50;;;9.97;94.72
60345;BME280;46188;52.324;8.032;2023-05-02T08:53:04;101254.03;;;10.09;93.57
60345;BME280;46188;52.324;8.032;2023-05-02T08:55:29;101254.81;;;10.05;93.09
60345;BME280;46188;52.324;8.032;2023-05-02T08:57:56;101258.44;;;10.10;92.46
60345;BME280;46188;52.324;8.032;2023-05-02T09:00:22;101260.41;;;10.19;92.35
60345;BME280;46188;52.324;8.032;2023-05-02T09:05:41;101270.38;;;10.30;90.87
60345;BME280;46188;52.324;8.032;2023-05-02T09:08:07;101270.56;;;10.37;91.18
60345;BME280;46188;52.324;8.032;2023-05-02T09:10:35;101278.28;;;10.30;89.86
60345;BME280;46188;52.324;8.032;2023-05-02T09:13:59;101281.13;;;10.37;89.92
60345;BME280;46188;52.324;8.032;2023-05-02T09:16:20;101287.91;;;10.28;88.66
60345;BME280;46188;52.324;8.032;2023-05-02T09:18:51;101287.84;;;10.27;88.59
60345;BME280;46188;52.324;8.032;2023-05-02T09:23:45;101304.94;;;10.41;87.06
60345;BME280;46188;52.324;8.032;2023-05-02T09:26:11;101303.59;;;10.59;86.73
60345;BME280;46188;52.324;8.032;2023-05-02T09:29:01;101309.72;;;10.56;85.27
60345;BME280;46188;52.324;8.032;2023-05-02T09:31:29;101317.19;;;10.39;84.50
60345;BME280;46188;52.324;8.032;2023-05-02T09:34:07;101321.81;;;10.48;84.36
60345;BME280;46188;52.324;8.032;2023-05-02T09:36:38;101323.56;;;10.49;83.88
60345;BME280;46188;52.324;8.032;2023-05-02T09:39:09;101321.91;;;10.51;83.68
60345;BME280;46188;52.324;8.032;2023-05-02T09:41:45;101328.94;;;10.52;82.95
60345;BME280;46188;52.324;8.032;2023-05-02T09:44:12;101326.44;;;10.58;82.61
60345;BME280;46188;52.324;8.032;2023-05-02T09:46:42;101330.81;;;10.56;82.24
60345;BME280;46188;52.324;8.032;2023-05-02T09:49:07;101331.81;;;10.61;81.78
60345;BME280;46188;52.324;8.032;2023-05-02T09:51:34;101337.84;;;10.57;81.44
60345;BME280;46188;52.324;8.032;2023-05-02T09:53:59;101325.66;;;10.62;80.80
60345;BME280;46188;52.324;8.032;2023-05-02T09:56:25;101331.78;;;10.60;80.09
60345;BME280;46188;52.324;8.032;2023-05-02T09:58:50;101330.94;;;10.62;79.98
60345;BME280;46188;52.324;8.032;2023-05-02T10:01:16;101322.25;;;10.66;79.56
60345;BME280;46188;52.324;8.032;2023-05-02T10:03:45;101330.06;;;10.62;78.64
60345;BME280;46188;52.324;8.032;2023-05-02T10:06:11;101330.16;;;10.66;77.85
60345;BME280;46188;52.324;8.032;2023-05-02T10:08:38;101325.81;;;10.68;76.79
60345;BME280;46188;52.324;8.032;2023-05-02T10:11:06;101339.19;;;10.76;76.07
60345;BME280;46188;52.324;8.032;2023-05-02T10:13:32;101346.16;;;10.73;75.66
60345;BME280;46188;52.324;8.032;2023-05-02T10:16:00;101353.16;;;10.72;75.54
60345;BME280;46188;52.324;8.032;2023-05-02T10:18:28;101357.47;;;10.68;74.39
60345;BME280;46188;52.324;8.032;2023-05-02T10:21:00;101362.41;;;10.55;74.52
60345;BME280;46188;52.324;8.032;2023-05-02T10:23:29;101366.94;;;10.60;74.52
60345;BME280;46188;52.324;8.032;2023-05-02T10:25:56;101366.47;;;10.77;74.28
60345;BME280;46188;52.324;8.032;2023-05-02T10:28:22;101363.13;;;10.85;73.23
60345;BME280;46188;52.324;8.032;2023-05-02T10:30:49;101371.06;;;10.85;72.56
60345;BME280;46188;52.324;8.032;2023-05-02T10:33:15;101375.50;;;10.86;72.79
60345;BME280;46188;52.324;8.032;2023-05-02T10:35:43;101364.97;;;10.88;71.99
60345;BME280;46188;52.324;8.032;2023-05-02T10:38:14;101369.44;;;10.92;71.43
60345;BME280;46188;52.324;8.032;2023-05-02T10:40:40;101373.13;;;10.97;70.64
60345;BME280;46188;52.324;8.032;2023-05-02T10:43:07;101366.22;;;11.02;70.10
60345;BME280;46188;52.324;8.032;2023-05-02T10:45:36;101373.22;;;11.02;68.75
60345;BME280;46188;52.324;8.032;2023-05-02T10:48:26;101364.53;;;11.06;68.42
60345;BME280;46188;52.324;8.032;2023-05-02T10:50:53;101383.16;;;11.14;67.69
60345;BME280;46188;52.324;8.032;2023-05-02T10:58:40;101373.19;;;11.40;64.39
60345;BME280;46188;52.324;8.032;2023-05-02T11:04:00;101373.78;;;11.68;62.78
60345;BME280;46188;52.324;8.032;2023-05-02T11:06:28;101367.09;;;12.29;60.73
60345;BME280;46188;52.324;8.032;2023-05-02T11:11:46;101362.69;;;12.80;58.97
60345;BME280;46188;52.324;8.032;2023-05-02T11:24:42;101379.28;;;12.70;57.80
60345;BME280;46188;52.324;8.032;2023-05-02T11:30:02;101385.47;;;12.22;58.95
60345;BME280;46188;52.324;8.032;2023-05-02T11:35:21;101395.56;;;11.97;58.27
60345;BME280;46188;52.324;8.032;2023-05-02T11:37:56;101399.31;;;12.08;57.19
60345;BME280;46188;52.324;8.032;2023-05-02T11:40:22;101403.84;;;12.15;57.61
60345;BME280;46188;52.324;8.032;2023-05-02T11:42:48;101396.94;;;12.22;57.83
60345;BME280;46188;52.324;8.032;2023-05-02T11:45:13;101394.38;;;12.27;57.66
60345;BME280;46188;52.324;8.032;2023-05-02T11:47:40;101402.34;;;11.86;56.31
60345;BME280;46188;52.324;8.032;2023-05-02T11:50:06;101402.06;;;11.73;56.93
60345;BME280;46188;52.324;8.032;2023-05-02T11:52:42;101403.16;;;11.83;57.25
60345;BME280;46188;52.324;8.032;2023-05-02T11:55:11;101414.59;;;11.82;58.17
60345;BME280;46188;52.324;8.032;2023-05-02T11:57:37;101416.31;;;11.78;58.64
60345;BME280;46188;52.324;8.032;2023-05-02T12:00:03;101424.16;;;11.75;59.64
60345;BME280;46188;52.324;8.032;2023-05-02T12:02:36;101422.63;;;11.88;59.18
60345;BME280;46188;52.324;8.032;2023-05-02T12:05:03;101422.63;;;11.88;59.81
60345;BME280;46188;52.324;8.032;2023-05-02T12:07:34;101427.03;;;11.88;58.67
60345;BME280;46188;52.324;8.032;2023-05-02T12:10:00;101427.91;;;11.87;59.31
60345;BME280;46188;52.324;8.032;2023-05-02T12:12:26;101431.00;;;12.07;59.19
60345;BME280;46188;52.324;8.032;2023-05-02T12:14:51;101438.41;;;12.26;58.76
60345;BME280;46188;52.324;8.032;2023-05-02T12:17:16;101444.13;;;12.49;58.10
60345;BME280;46188;52.324;8.032;2023-05-02T12:19:42;101439.09;;;12.62;56.58
60345;BME280;46188;52.324;8.032;2023-05-02T12:22:08;101437.19;;;12.53;56.00
60345;BME280;46188;52.324;8.032;2023-05-02T12:24:33;101440.59;;;12.47;55.41
60345;BME280;46188;52.324;8.032;2023-05-02T12:27:13;101439.44;;;12.34;54.57
60345;BME280;46188;52.324;8.032;2023-05-02T12:29:43;101441.03;;;12.23;53.84
60345;BME280;46188;52.324;8.032;2023-05-02T12:32:10;101435.78;;;12.26;53.42
60345;BME280;46188;52.324;8.032;2023-05-02T12:34:36;101446.78;;;12.48;53.58
60345;BME280;46188;52.324;8.032;2023-05-02T12:37:02;101439.47;;;12.83;53.30
60345;BME280;46188;52.324;8.032;2023-05-02T12:39:38;101447.00;;;13.12;53.47
60345;BME280;46188;52.324;8.032;2023-05-02T12:42:10;101433.91;;;13.21;53.57
60345;BME280;46188;52.324;8.032;2023-05-02T12:44:38;101435.75;;;13.27;53.56
60345;BME280;46188;52.324;8.032;2023-05-02T12:47:03;101455.78;;;13.09;53.57
60345;BME280;46188;52.324;8.032;2023-05-02T12:49:29;101443.28;;;13.01;53.66
60345;BME280;46188;52.324;8.032;2023-05-02T12:51:55;101451.19;;;12.98;53.92
60345;BME280;46188;52.324;8.032;2023-05-02T12:54:20;101451.19;;;12.98;54.43
60345;BME280;46188;52.324;8.032;2023-05-02T12:56:46;101447.63;;;12.97;54.12
60345;BME280;46188;52.324;8.032;2023-05-02T12:59:26;101446.75;;;12.97;54.06
60345;BME280;46188;52.324;8.032;2023-05-02T13:01:51;101445.94;;;13.01;53.10
60345;BME280;46188;52.324;8.032;2023-05-02T13:04:17;101457.22;;;12.90;53.82
60345;BME280;46188;52.324;8.032;2023-05-02T13:06:42;101454.72;;;12.98;53.68
60345;BME280;46188;52.324;8.032;2023-05-02T13:09:07;101452.81;;;12.89;53.99
60345;BME280;46188;52.324;8.032;2023-05-02T13:11:32;101451.91;;;12.89;54.15
60345;BME280;46188;52.324;8.032;2023-05-02T13:13:58;101453.50;;;12.78;53.86
60345;BME280;46188;52.324;8.032;2023-05-02T13:16:25;101463.94;;;12.70;53.96
60345;BME280;46188;52.324;8.032;2023-05-02T13:18:50;101460.53;;;12.77;54.08
60345;BME280;46188;52.324;8.032;2023-05-02T13:21:15;101454.06;;;13.11;53.41
60345;BME280;46188;52.324;8.032;2023-05-02T13:23:41;101456.34;;;13.43;52.78
60345;BME280;46188;52.324;8.032;2023-05-02T13:26:08;101461.09;;;14.36;51.21
60345;BME280;46188;52.324;8.032;2023-05-02T13:28:33;101462.69;;;14.20;50.83
60345;BME280;46188;52.324;8.032;2023-05-02T13:30:59;101463.09;;;13.82;50.95
60345;BME280;46188;52.324;8.032;2023-05-02T13:33:25;101469.75;;;13.53;51.18